createdAt,value
2018-11-12T00:00:04.262Z,11.27
2018-11-12T00:02:32.505Z,10.97
2018-11-12T00:05:01.226Z,10.60
2018-11-12T00:07:29.529Z,11.13
2018-11-12T00:09:58.530Z,9.77
2018-11-12T00:12:27.309Z,10.13
2018-11-12T00:14:55.756Z,10.27
2018-11-12T00:17:25.488Z,10.53
2018-11-12T00:19:53.982Z,10.17
2018-11-12T00:22:23.218Z,9.50
2018-11-12T00:24:52.667Z,8.73
2018-11-12T00:27:20.986Z,10.57
2018-11-12T00:29:49.250Z,10.67
2018-11-12T00:32:17.495Z,9.87
2018-11-12T00:34:45.774Z,10.93
2018-11-12T00:37:14.081Z,9.63
2018-11-12T00:39:42.318Z,8.70
2018-11-12T00:42:10.578Z,10.53
2018-11-12T00:44:38.811Z,10.17
2018-11-12T00:47:07.066Z,10.40
2018-11-12T00:49:35.311Z,10.17
2018-11-12T00:52:03.586Z,10.93
2018-11-12T00:54:31.850Z,11.57
2018-11-12T00:57:00.179Z,10.77
2018-11-12T00:59:28.442Z,10.47
2018-11-12T01:01:56.783Z,11.87
2018-11-12T01:04:25.045Z,11.30
2018-11-12T01:06:53.327Z,11.43
2018-11-12T01:09:21.587Z,11.17
2018-11-12T01:11:49.818Z,11.80
2018-11-12T01:14:18.045Z,10.90
2018-11-12T01:16:46.338Z,11.30
2018-11-12T01:19:14.646Z,10.63
2018-11-12T01:21:43.097Z,10.67
2018-11-12T01:24:11.331Z,9.80
2018-11-12T01:26:39.616Z,9.90
2018-11-12T01:29:07.850Z,10.17
2018-11-12T01:31:36.094Z,9.70
2018-11-12T01:34:04.566Z,10.90
2018-11-12T01:36:32.799Z,11.23
2018-11-12T01:39:01.053Z,10.17
2018-11-12T01:41:29.291Z,7.30
2018-11-12T01:43:57.542Z,10.80
2018-11-12T01:46:25.766Z,9.27
2018-11-12T01:48:54.013Z,9.60
2018-11-12T01:51:22.270Z,9.00
2018-11-12T01:53:50.526Z,8.97
2018-11-12T01:56:18.765Z,10.67
2018-11-12T01:58:47.030Z,10.07
2018-11-12T02:01:15.274Z,9.93
2018-11-12T02:03:43.526Z,10.37
2018-11-12T02:06:15.178Z,12.83
2018-11-12T02:08:43.524Z,11.97
2018-11-12T02:11:11.698Z,13.40
2018-11-12T02:13:39.957Z,12.60
2018-11-12T02:16:09.188Z,15.07
2018-11-12T02:18:37.646Z,17.10
2018-11-12T02:21:06.602Z,16.10
2018-11-12T02:23:35.015Z,14.23
2018-11-12T02:26:03.401Z,15.77
2018-11-12T02:28:31.714Z,15.07
2018-11-12T02:30:59.975Z,15.77
2018-11-12T02:33:28.215Z,16.80
2018-11-12T02:35:56.496Z,15.37
2018-11-12T02:38:24.758Z,16.53
2018-11-12T02:40:53.015Z,16.73
2018-11-12T02:43:21.315Z,15.77
2018-11-12T02:45:49.550Z,16.73
2018-11-12T02:48:17.818Z,14.80
2018-11-12T02:50:46.086Z,14.80
2018-11-12T02:53:14.372Z,14.57
2018-11-12T02:55:42.732Z,15.47
2018-11-12T02:58:10.991Z,14.90
2018-11-12T03:00:39.231Z,15.90
2018-11-12T03:03:07.658Z,15.60
2018-11-12T03:05:35.922Z,16.07
2018-11-12T03:08:04.207Z,14.13
2018-11-12T03:10:32.467Z,14.17
2018-11-12T03:13:00.722Z,14.53
2018-11-12T03:15:28.938Z,14.30
2018-11-12T03:17:57.199Z,14.63
2018-11-12T03:20:25.456Z,14.47
2018-11-12T03:22:53.694Z,13.50
2018-11-12T03:25:22.528Z,13.20
2018-11-12T03:27:50.835Z,14.17
2018-11-12T03:30:20.245Z,15.23
2018-11-12T03:32:49.384Z,13.00
2018-11-12T03:35:17.670Z,13.40
2018-11-12T03:37:47.056Z,13.47
2018-11-12T03:40:18.430Z,14.37
2018-11-12T03:42:47.146Z,13.87
2018-11-12T03:45:16.678Z,14.13
2018-11-12T03:47:44.990Z,15.43
2018-11-12T03:50:14.850Z,17.97
2018-11-12T03:52:43.229Z,15.70
2018-11-12T03:55:12.842Z,15.93
2018-11-12T03:57:41.289Z,15.53
2018-11-12T04:00:14.022Z,16.37
2018-11-12T04:02:42.472Z,15.60
2018-11-12T04:05:10.964Z,15.97
2018-11-12T04:07:40.158Z,15.53
2018-11-12T04:10:10.926Z,15.10
2018-11-12T04:12:39.370Z,15.13
2018-11-12T04:15:09.417Z,15.07
2018-11-12T04:17:37.725Z,15.90
2018-11-12T04:20:07.025Z,15.67
2018-11-12T04:22:35.435Z,14.97
2018-11-12T04:25:04.015Z,15.07
2018-11-12T04:27:32.361Z,15.60
2018-11-12T04:30:00.665Z,15.43
2018-11-12T04:32:29.205Z,15.17
2018-11-12T04:34:57.517Z,15.20
2018-11-12T04:37:25.882Z,15.83
2018-11-12T04:39:54.225Z,14.63
2018-11-12T04:42:22.542Z,13.87
2018-11-12T04:44:50.884Z,14.33
2018-11-12T04:47:19.234Z,13.70
2018-11-12T04:49:47.573Z,13.43
2018-11-12T04:52:15.895Z,14.47
2018-11-12T04:54:44.263Z,13.30
2018-11-12T04:57:12.605Z,14.67
2018-11-12T04:59:40.934Z,12.60
2018-11-12T05:02:09.298Z,13.53
2018-11-12T05:04:37.616Z,16.87
2018-11-12T05:07:09.581Z,12.83
2018-11-12T05:09:37.917Z,11.30
2018-11-12T05:12:06.283Z,11.33
2018-11-12T05:14:35.721Z,11.17
2018-11-12T05:17:04.081Z,11.13
2018-11-12T05:19:32.395Z,12.40
2018-11-12T05:22:00.784Z,11.03
2018-11-12T05:24:29.283Z,11.47
2018-11-12T05:26:57.753Z,11.90
2018-11-12T05:29:26.176Z,11.67
2018-11-12T05:31:54.493Z,11.77
2018-11-12T05:34:28.636Z,11.17
2018-11-12T05:36:56.950Z,11.30
2018-11-12T05:39:25.287Z,13.20
2018-11-12T05:41:53.596Z,13.30
2018-11-12T05:44:21.943Z,14.37
2018-11-12T05:46:50.290Z,12.80
2018-11-12T05:49:18.613Z,16.27
2018-11-12T05:51:47.066Z,14.80
2018-11-12T05:54:15.397Z,15.40
2018-11-12T05:56:43.766Z,12.73
2018-11-12T05:59:12.181Z,14.73
2018-11-12T06:01:40.745Z,15.67
2018-11-12T06:04:09.058Z,14.47
2018-11-12T06:06:37.362Z,14.73
2018-11-12T06:09:08.609Z,16.50
2018-11-12T06:11:37.090Z,15.03
2018-11-12T06:14:05.628Z,16.17
2018-11-12T06:16:34.504Z,14.73
2018-11-12T06:19:03.238Z,14.73
2018-11-12T06:21:31.698Z,16.33
2018-11-12T06:24:00.046Z,17.00
2018-11-12T06:26:28.385Z,16.83
2018-11-12T06:28:56.714Z,15.77
2018-11-12T06:31:25.043Z,16.53
2018-11-12T06:33:53.396Z,17.40
2018-11-12T06:36:21.740Z,16.43
2018-11-12T06:38:50.499Z,16.37
2018-11-12T06:41:18.825Z,15.40
2018-11-12T06:43:47.396Z,16.13
2018-11-12T06:46:15.830Z,16.53
2018-11-12T06:48:44.158Z,16.03
2018-11-12T06:51:12.478Z,14.90
2018-11-12T06:53:40.782Z,16.50
2018-11-12T06:56:09.078Z,16.10
2018-11-12T06:58:38.635Z,14.90
2018-11-12T07:01:07.634Z,14.80
2018-11-12T07:03:36.011Z,14.17
2018-11-12T07:06:04.369Z,13.53
2018-11-12T07:08:34.829Z,13.23
2018-11-12T07:11:03.222Z,13.97
2018-11-12T07:13:31.573Z,12.93
2018-11-12T07:15:59.961Z,12.97
2018-11-12T07:18:28.350Z,13.03
2018-11-12T07:20:56.673Z,13.03
2018-11-12T07:23:25.058Z,12.77
2018-11-12T07:25:57.089Z,11.97
2018-11-12T07:28:25.454Z,12.93
2018-11-12T07:30:54.064Z,13.30
2018-11-12T07:33:22.494Z,11.77
2018-11-12T07:35:50.846Z,12.07
2018-11-12T07:38:19.198Z,12.70
2018-11-12T07:40:47.562Z,11.63
2018-11-12T07:43:15.990Z,11.70
2018-11-12T07:45:44.405Z,11.63
2018-11-12T07:48:12.742Z,11.60
2018-11-12T07:50:41.151Z,11.53
2018-11-12T07:53:09.533Z,11.47
2018-11-12T07:55:37.877Z,10.70
2018-11-12T07:58:06.293Z,10.17
2018-11-12T08:00:35.213Z,9.93
2018-11-12T08:03:07.108Z,9.83
2018-11-12T08:05:36.084Z,9.13
2018-11-12T08:08:04.454Z,9.73
2018-11-12T08:10:32.916Z,9.33
2018-11-12T08:13:01.316Z,9.40
2018-11-12T08:15:29.676Z,9.20
2018-11-12T08:17:58.046Z,8.67
2018-11-12T08:20:27.062Z,9.17
2018-11-12T08:22:55.389Z,9.93
2018-11-12T08:25:23.742Z,8.43
2018-11-12T08:27:52.098Z,8.70
2018-11-12T08:30:23.647Z,8.40
2018-11-12T08:32:54.425Z,7.67
2018-11-12T08:35:22.794Z,8.53
2018-11-12T08:37:51.853Z,9.40
2018-11-12T08:40:21.499Z,10.47
2018-11-12T08:42:49.839Z,10.53
2018-11-12T08:45:18.237Z,11.33
2018-11-12T08:47:49.182Z,11.00
2018-11-12T08:50:19.002Z,10.53
2018-11-12T08:52:48.378Z,9.50
2018-11-12T08:55:18.109Z,9.90
2018-11-12T08:57:47.909Z,10.87
2018-11-12T09:00:17.025Z,11.17
2018-11-12T09:02:45.429Z,10.53
2018-11-12T09:05:14.694Z,9.87
2018-11-12T09:07:44.418Z,9.40
2018-11-12T09:10:16.499Z,8.27
2018-11-12T09:12:45.028Z,8.07
2018-11-12T09:15:15.539Z,8.03
2018-11-12T09:17:44.867Z,7.20
2018-11-12T09:20:15.610Z,6.20
2018-11-12T09:22:43.984Z,7.47
2018-11-12T09:25:13.994Z,6.90
2018-11-12T09:27:42.470Z,6.97
2018-11-12T09:30:15.913Z,7.50
2018-11-12T09:32:44.647Z,7.93
2018-11-12T09:35:16.035Z,6.37
2018-11-12T09:37:45.915Z,6.90
2018-11-12T09:40:20.049Z,7.10
2018-11-12T09:42:48.434Z,6.40
2018-11-12T09:45:16.768Z,7.40
2018-11-12T09:47:45.689Z,8.00
2018-11-12T09:50:16.149Z,8.03
2018-11-12T09:52:45.845Z,7.90
2018-11-12T09:55:14.805Z,7.50
2018-11-12T09:57:44.774Z,7.40
2018-11-12T10:00:14.888Z,7.23
2018-11-12T10:02:45.384Z,7.47
2018-11-12T10:05:14.745Z,7.17
2018-11-12T10:07:44.115Z,8.07
2018-11-12T10:10:28.228Z,7.63
2018-11-12T10:12:57.396Z,8.83
2018-11-12T10:15:24.530Z,8.20
2018-11-12T10:20:44.445Z,7.30
2018-11-12T10:23:15.332Z,7.20
2018-11-12T10:25:44.750Z,6.93
2018-11-12T10:28:15.722Z,7.40
2018-11-12T10:30:44.074Z,7.67
2018-11-12T10:33:12.454Z,6.43
2018-11-12T10:35:46.801Z,7.80
2018-11-12T10:38:15.286Z,7.60
2018-11-12T10:40:44.348Z,6.63
2018-11-12T10:43:13.742Z,7.37
2018-11-12T10:45:45.242Z,7.67
2018-11-12T10:48:15.031Z,6.93
2018-11-12T10:50:44.897Z,7.77
2018-11-12T10:53:15.222Z,8.30
2018-11-12T10:55:44.565Z,5.77
2018-11-12T10:58:12.739Z,6.80
2018-11-12T11:00:50.607Z,7.10
2018-11-12T11:03:24.079Z,7.63
2018-11-12T11:05:58.257Z,8.27
2018-11-12T11:08:33.752Z,8.37
2018-11-12T11:11:02.483Z,8.50
2018-11-12T11:13:34.115Z,8.13
2018-11-12T11:16:02.558Z,8.57
2018-11-12T11:18:31.248Z,7.70
2018-11-12T11:20:59.728Z,7.50
2018-11-12T11:23:28.017Z,7.90
2018-11-12T11:25:56.358Z,8.03
2018-11-12T11:28:24.742Z,7.57
2018-11-12T11:30:53.176Z,7.87
2018-11-12T11:33:21.454Z,7.87
2018-11-12T11:35:49.796Z,7.83
2018-11-12T11:38:18.113Z,7.80
2018-11-12T11:40:46.471Z,8.47
2018-11-12T11:43:14.785Z,8.47
2018-11-12T11:45:43.121Z,9.37
2018-11-12T11:48:11.534Z,11.00
2018-11-12T11:50:40.196Z,9.47
2018-11-12T11:53:08.469Z,11.07
2018-11-12T12:00:36.198Z,12.10
2018-11-12T12:03:04.562Z,13.30
2018-11-12T12:05:32.970Z,13.53
2018-11-12T12:08:01.365Z,12.57
2018-11-12T12:10:29.718Z,13.73
2018-11-12T12:12:58.056Z,13.47
2018-11-12T12:15:26.374Z,14.07
2018-11-12T12:17:54.764Z,14.43
2018-11-12T12:20:24.881Z,14.13
2018-11-12T12:22:53.723Z,14.67
2018-11-12T12:25:22.117Z,14.27
2018-11-12T12:27:50.670Z,13.53
2018-11-12T12:30:22.300Z,12.07
2018-11-12T12:32:51.591Z,12.93
2018-11-12T12:35:19.922Z,12.60
2018-11-12T12:37:48.434Z,13.30
2018-11-12T12:40:18.927Z,13.33
2018-11-12T12:42:47.286Z,13.77
2018-11-12T12:45:17.123Z,13.77
2018-11-12T12:47:45.694Z,14.10
2018-11-12T12:50:15.012Z,14.50
2018-11-12T12:52:43.374Z,15.20
2018-11-12T12:55:12.749Z,15.60
2018-11-12T12:57:41.814Z,15.33
2018-11-12T13:00:22.569Z,16.13
2018-11-12T13:02:50.913Z,15.57
2018-11-12T13:05:19.395Z,16.33
2018-11-12T13:07:47.806Z,16.67
2018-11-12T13:10:17.761Z,17.27
2018-11-12T13:12:46.172Z,17.60
2018-11-12T13:15:21.484Z,14.50
2018-11-12T13:17:50.553Z,17.13
2018-11-12T13:20:22.194Z,15.23
2018-11-12T13:22:50.674Z,16.77
2018-11-12T13:25:19.216Z,16.53
2018-11-12T13:27:48.174Z,17.30
2018-11-12T13:30:23.425Z,16.30
2018-11-12T13:32:52.207Z,15.23
2018-11-12T13:35:26.990Z,16.30
2018-11-12T13:37:55.377Z,18.37
2018-11-12T13:40:24.900Z,16.13
2018-11-12T13:42:55.766Z,14.90
2018-11-12T13:45:24.544Z,16.23
2018-11-12T13:47:53.210Z,17.80
2018-11-12T13:50:22.901Z,18.17
2018-11-12T13:52:51.902Z,18.30
2018-11-12T13:55:21.115Z,18.07
2018-11-12T13:57:49.448Z,19.00
2018-11-12T14:00:19.342Z,18.30
2018-11-12T14:02:48.443Z,19.37
2018-11-12T14:05:18.093Z,18.70
2018-11-12T14:07:46.637Z,19.23
2018-11-12T14:10:16.285Z,18.50
2018-11-12T14:12:45.938Z,19.47
2018-11-12T14:15:16.746Z,20.50
2018-11-12T14:17:45.641Z,19.13
2018-11-12T14:20:14.175Z,20.30
2018-11-12T14:22:42.406Z,19.90
2018-11-12T14:25:12.346Z,19.67
2018-11-12T14:27:40.894Z,20.50
2018-11-12T14:30:11.113Z,21.20
2018-11-12T14:32:39.426Z,22.20
2018-11-12T14:35:08.299Z,20.97
2018-11-12T14:37:36.735Z,20.57
2018-11-12T14:40:06.157Z,21.17
2018-11-12T14:42:34.506Z,20.97
2018-11-12T14:45:02.899Z,21.87
2018-11-12T14:47:31.244Z,20.97
2018-11-12T14:49:59.746Z,23.00
2018-11-12T14:52:28.106Z,20.30
2018-11-12T14:54:56.546Z,20.77
2018-11-12T14:57:24.830Z,21.07
2018-11-12T14:59:53.259Z,21.60
2018-11-12T15:02:21.697Z,20.87
2018-11-12T15:04:50.056Z,22.07
2018-11-12T15:07:18.444Z,21.37
2018-11-12T15:09:46.822Z,22.10
2018-11-12T15:12:15.292Z,22.67
2018-11-12T15:14:43.713Z,21.57
2018-11-12T15:17:11.987Z,22.97
2018-11-12T15:19:40.333Z,23.00
2018-11-12T15:22:08.666Z,21.13
2018-11-12T15:24:37.002Z,18.40
2018-11-12T15:27:06.000Z,22.33
2018-11-12T15:29:34.668Z,22.40
2018-11-12T15:32:02.965Z,20.47
2018-11-12T15:34:31.338Z,23.40
2018-11-12T15:36:59.857Z,23.73
2018-11-12T15:39:28.054Z,24.30
2018-11-12T15:41:56.523Z,24.10
2018-11-12T15:44:25.016Z,22.73
2018-11-12T15:46:53.362Z,23.47
2018-11-12T15:49:21.826Z,23.33
2018-11-12T15:51:50.161Z,25.57
2018-11-12T15:54:18.538Z,21.60
2018-11-12T15:56:46.959Z,24.70
2018-11-12T15:59:15.504Z,23.30
2018-11-12T16:01:44.094Z,23.17
2018-11-12T16:04:12.610Z,22.77
2018-11-12T16:06:41.588Z,22.23
2018-11-12T16:09:13.690Z,22.33
2018-11-12T16:11:42.640Z,24.30
2018-11-12T16:14:11.062Z,24.10
2018-11-12T16:16:39.538Z,23.43
2018-11-12T16:19:09.003Z,25.27
2018-11-12T16:21:37.441Z,25.13
2018-11-12T16:24:05.970Z,24.00
2018-11-12T16:26:34.481Z,23.20
2018-11-12T16:29:03.010Z,24.17
2018-11-12T16:31:31.429Z,25.87
2018-11-12T16:34:00.135Z,25.37
2018-11-12T16:36:28.623Z,23.03
2018-11-12T16:38:57.363Z,25.57
2018-11-12T16:41:25.966Z,26.47
2018-11-12T16:43:54.490Z,26.73
2018-11-12T16:46:23.132Z,25.57
2018-11-12T16:48:51.510Z,29.60
2018-11-12T16:51:19.998Z,30.73
2018-11-12T16:53:48.610Z,33.13
2018-11-12T16:56:17.674Z,31.33
2018-11-12T16:58:46.287Z,31.63
2018-11-12T17:01:15.032Z,32.07
2018-11-12T17:03:43.694Z,31.77
2018-11-12T17:06:12.373Z,32.40
2018-11-12T17:08:40.858Z,33.03
2018-11-12T17:11:09.311Z,34.30
2018-11-12T17:13:37.941Z,32.77
2018-11-12T17:16:06.389Z,35.17
2018-11-12T17:18:34.730Z,34.17
2018-11-12T17:21:03.065Z,31.33
2018-11-12T17:23:32.522Z,34.03
2018-11-12T17:26:00.902Z,36.67
2018-11-12T17:28:29.250Z,35.27
2018-11-12T17:30:57.649Z,36.93
2018-11-12T17:33:25.970Z,35.07
2018-11-12T17:35:54.341Z,35.67
2018-11-12T17:38:22.734Z,35.87
2018-11-12T17:40:51.151Z,38.73
2018-11-12T17:43:19.551Z,38.40
2018-11-12T17:45:47.859Z,36.23
2018-11-12T17:48:16.234Z,38.30
2018-11-12T17:50:44.637Z,37.70
2018-11-12T17:53:13.026Z,35.43
2018-11-12T17:55:41.410Z,36.23
2018-11-12T17:58:09.829Z,33.20
2018-11-12T18:00:38.354Z,30.30
2018-11-12T18:03:06.853Z,32.00
2018-11-12T18:05:35.213Z,32.27
2018-11-12T18:08:03.613Z,32.17
2018-11-12T18:10:31.890Z,34.57
2018-11-12T18:13:00.224Z,32.27
2018-11-12T18:15:28.568Z,29.90
2018-11-12T18:18:00.339Z,29.80
2018-11-12T18:20:28.788Z,27.70
2018-11-12T18:22:57.630Z,29.40
2018-11-12T18:25:26.095Z,29.70
2018-11-12T18:27:54.984Z,26.57
2018-11-12T18:30:29.035Z,28.53
2018-11-12T18:32:57.818Z,29.00
2018-11-12T18:35:26.631Z,25.90
2018-11-12T18:37:55.050Z,29.07
2018-11-12T18:40:25.652Z,28.33
2018-11-12T18:42:54.008Z,28.67
2018-11-12T18:45:23.646Z,29.73
2018-11-12T18:47:52.102Z,29.03
2018-11-12T18:50:22.258Z,29.87
2018-11-12T18:52:53.835Z,30.10
2018-11-12T18:55:22.181Z,29.23
2018-11-12T18:57:50.985Z,25.93
2018-11-12T19:00:20.647Z,27.90
2018-11-12T19:02:54.137Z,22.77
2018-11-12T19:05:24.230Z,23.73
2018-11-12T19:07:53.785Z,25.07
2018-11-12T19:10:26.381Z,25.73
2018-11-12T19:13:01.513Z,23.90
2018-11-12T19:15:31.417Z,24.33
2018-11-12T19:18:01.703Z,24.87
2018-11-12T19:20:30.042Z,22.73
2018-11-12T19:22:58.346Z,22.07
2018-11-12T19:25:26.747Z,24.53
2018-11-12T19:27:55.061Z,22.73
2018-11-12T19:30:24.682Z,24.50
2018-11-12T19:32:53.065Z,24.40
2018-11-12T19:35:22.794Z,23.73
2018-11-12T19:37:51.143Z,24.80
2018-11-12T19:40:20.782Z,26.53
2018-11-12T19:42:52.338Z,26.50
2018-11-12T19:45:21.301Z,26.37
2018-11-12T19:47:52.035Z,26.83
2018-11-12T19:50:21.818Z,27.67
2018-11-12T19:52:52.431Z,30.83
2018-11-12T19:55:21.000Z,29.33
2018-11-12T19:57:49.365Z,30.57
2018-11-12T20:00:19.274Z,33.70
2018-11-12T20:02:48.774Z,32.23
2018-11-12T20:05:17.118Z,32.90
2018-11-12T20:07:45.623Z,33.00
2018-11-12T20:10:15.774Z,33.07
2018-11-12T20:12:44.259Z,33.67
2018-11-12T20:15:13.721Z,31.93
2018-11-12T20:17:42.938Z,31.13
2018-11-12T20:20:18.587Z,32.00
2018-11-12T20:22:47.593Z,29.80
2018-11-12T20:25:16.955Z,30.73
2018-11-12T20:27:45.717Z,30.30
2018-11-12T20:30:16.622Z,29.63
2018-11-12T20:32:45.410Z,31.50
2018-11-12T20:35:13.775Z,29.97
2018-11-12T20:37:42.088Z,28.87
2018-11-12T20:40:11.474Z,28.80
2018-11-12T20:42:40.001Z,28.37
2018-11-12T20:45:09.936Z,28.97
2018-11-12T20:47:40.914Z,29.10
2018-11-12T20:50:10.193Z,29.70
2018-11-12T20:52:39.320Z,28.53
2018-11-12T20:55:08.371Z,26.73
2018-11-12T20:57:37.090Z,26.57
2018-11-12T21:00:07.402Z,23.43
2018-11-12T21:02:35.790Z,23.40
2018-11-12T21:05:04.162Z,23.10
2018-11-12T21:07:32.518Z,24.17
2018-11-12T21:10:00.845Z,26.03
2018-11-12T21:12:29.165Z,25.87
2018-11-12T21:14:57.566Z,26.50
2018-11-12T21:17:25.885Z,27.17
2018-11-12T21:19:55.201Z,29.27
2018-11-12T21:22:23.569Z,28.57
2018-11-12T21:24:51.942Z,29.03
2018-11-12T21:27:20.429Z,29.57
2018-11-12T21:29:48.793Z,30.07
2018-11-12T21:32:17.180Z,29.90
2018-11-12T21:34:45.509Z,29.00
2018-11-12T21:37:13.930Z,30.43
2018-11-12T21:39:42.183Z,27.13
2018-11-12T21:42:10.750Z,31.07
2018-11-12T21:44:39.073Z,28.33
2018-11-12T21:47:07.420Z,29.67
2018-11-12T21:49:35.776Z,29.83
2018-11-12T21:52:04.131Z,30.37
2018-11-12T21:54:32.438Z,29.63
2018-11-12T21:57:00.786Z,29.23
2018-11-12T21:59:29.135Z,29.13
2018-11-12T22:01:57.490Z,26.43
2018-11-12T22:04:29.109Z,28.03
2018-11-12T22:06:57.447Z,26.57
2018-11-12T22:09:25.770Z,26.03
2018-11-12T22:11:54.105Z,28.33
2018-11-12T22:14:22.476Z,27.53
2018-11-12T22:16:50.813Z,27.87
2018-11-12T22:19:22.964Z,24.97
2018-11-12T22:21:51.207Z,25.23
2018-11-12T22:24:19.590Z,25.17
2018-11-12T22:26:47.914Z,24.90
2018-11-12T22:29:16.240Z,27.17
2018-11-12T22:31:44.589Z,27.90
2018-11-12T22:34:12.907Z,25.50
2018-11-12T22:36:41.297Z,25.17
2018-11-12T22:39:10.477Z,22.83
2018-11-12T22:41:38.829Z,22.63
2018-11-12T22:44:07.171Z,23.40
2018-11-12T22:46:35.514Z,23.97
2018-11-12T22:49:03.871Z,22.50
2018-11-12T22:51:32.749Z,20.57
2018-11-12T22:54:01.189Z,21.67
2018-11-12T22:56:29.422Z,23.47
2018-11-12T22:58:57.808Z,22.70
2018-11-12T23:01:26.197Z,23.70
2018-11-12T23:03:54.505Z,23.27
2018-11-12T23:06:22.845Z,23.17
2018-11-12T23:08:51.179Z,23.70
2018-11-12T23:11:24.894Z,21.53
2018-11-12T23:13:53.211Z,23.07
2018-11-12T23:16:21.559Z,21.57
2018-11-12T23:18:49.890Z,21.40
2018-11-12T23:21:18.232Z,20.90
2018-11-12T23:23:46.575Z,20.93
2018-11-12T23:26:14.885Z,22.73
2018-11-12T23:28:43.245Z,20.83
2018-11-12T23:31:11.574Z,20.47
2018-11-12T23:33:45.693Z,20.57
2018-11-12T23:36:14.039Z,20.43
2018-11-12T23:38:42.401Z,20.73
2018-11-12T23:41:10.737Z,21.67
2018-11-12T23:46:09.256Z,21.57
2018-11-12T23:48:37.583Z,22.63
2018-11-12T23:51:06.198Z,22.63
2018-11-12T23:53:34.541Z,23.47
2018-11-12T23:56:02.854Z,24.37
2018-11-12T23:58:31.314Z,23.53
